Alger, OH

1:44 PM EDT on July 07, 2015 (GMT -0400)
Ada | | Change Station
CLOSE
Current Station
Personal Weather Station
Location: Ada, OH
Elevation: 912 ft
Nearby Weather Stations

Elev 912 ft 40.82 °N, 83.86 °W | Updated 2 seconds ago

Overcast
Overcast
69.1 °F
Feels Like 69.1 °F
N
9.0
Wind Variable Wind from WSW
Gusts 16.0 mph

Today
High -- | Low -- °F
--% Chance of Precip.
Yesterday
High -- | Low -- °F
Precip. -- in
6:11 AM 9:08 PM
Waning Gibbous, 63% visible
Pressure 29.94 in
Visibility 2.0 miles
Clouds Mostly Cloudy 2800 ft
Mostly Cloudy 5000 ft
Overcast 11000 ft
Dew Point 67 °F
Humidity 94%
Rainfall 0.36 in
Snow Depth Not available.
UV 4 out of 12
Pollen 2.00 out of 12
Air Quality Not available.
Flu Activity Not available.
SPECI KAOH 071740Z AUTO 21004KT 2SM TSRA BR BKN028 BKN050 OVC110 20/19 A2994 RMK AO2 PK WND 26027/1707 WSHFT 1701 LTG DSNT SW RAB13 TSB36 P0050 T02000189

More Conditions Fewer Conditions

Pressure 29.94 in
Visibility 2.0 miles
Clouds Mostly Cloudy 2800 ft
Mostly Cloudy 5000 ft
Overcast 11000 ft
Dew Point 67 °F
Humidity 94%
Rainfall 0.36 in
Snow Depth Not available.
UV 4 out of 12
Pollen 2.00 out of 12
Air Quality Not available.
Flu Activity Not available.
SPECI KAOH 071740Z AUTO 21004KT 2SM TSRA BR BKN028 BKN050 OVC110 20/19 A2994 RMK AO2 PK WND 26027/1707 WSHFT 1701 LTG DSNT SW RAB13 TSB36 P0050 T02000189

More Conditions Fewer Conditions

10-Day Weather Forecast

×

Almanac

Astronomy

Jul. 07, 2015 Rise Set
Actual Time
Civil Twilight
Nautical Twilight
Astronomical Twilight
Moon
Length of Visible Light
Length of Day
Tomorrow will be .
, % of the Moon is Illuminated

Today's Extremes

State Highs State Lows

Community

WunderPhotos

Upload Photos

1,835,858 photos uploaded!

WunderBlogs® & News

Nearby

Air Quality

  Air Quality AQ Index Pollutant
Not available.

Snow Depth

Station Depth Elevation

Earthquake Activity

City Distance Mag. Time & Date
Minimum magnitude displayed is 2.5.

Coastal Water Temperatures

Place Temperature

Stations

Nearby Weather Stations

Station Location Temp. Windchill Dew Point Humidity Wind Precip. Elev Updated Type